Time;durP1;ratioP1;P1;durP2;ratioP2;P2;SDS_P1;SDS_P2;PMS_P1;PMS_P2;Temp;Humidity;BMP_temperature;BMP_pressure;BME280_temperature;BME280_humidity;BME280_pressure;Samples;Min_cycle;Max_cycle;Signal;HPM_P1;HPM_P2
2022/08/14 00:01:39;;;;;;;7.97;4.57;;;;;;;;;;5028025;28;20037;-56
2022/08/14 00:04:04;;;;;;;4.63;4.00;;;;;;;;;;5029483;28;20036;-56
2022/08/14 00:06:30;;;;;;;6.10;4.07;;;;;;;;;;5028667;28;20087;-56
2022/08/14 00:08:55;;;;;;;5.10;3.97;;;;;;;;;;5029274;28;20021;-56
2022/08/14 00:11:21;;;;;;;5.70;4.00;;;;;;;;;;5025912;28;20395;-56
2022/08/14 00:13:47;;;;;;;6.78;4.10;;;;;;;;;;5028002;28;20034;-56
2022/08/14 00:16:13;;;;;;;4.47;4.05;;;;;;;;;;5026553;28;20220;-56
2022/08/14 00:18:39;;;;;;;4.90;4.18;;;;;;;;;;5029115;28;20083;-56
2022/08/14 00:21:06;;;;;;;6.63;4.50;;;;;;;;;;5027168;28;20068;-56
2022/08/14 00:23:31;;;;;;;8.85;4.75;;;;;;;;;;5027375;28;20025;-56
2022/08/14 00:25:56;;;;;;;4.80;4.30;;;;;;;;;;5027921;28;20182;-56
2022/08/14 00:28:25;;;;;;;5.40;4.20;;;;;;;;;;5027203;28;20036;-56
2022/08/14 00:30:58;;;;;;;8.37;5.10;;;;;;;;;;5029361;28;20120;-56
2022/08/14 00:33:25;;;;;;;4.55;3.90;;;;;;;;;;5026820;28;20037;-56
2022/08/14 00:35:52;;;;;;;5.45;4.15;;;;;;;;;;5027745;28;20021;-56
2022/08/14 00:38:18;;;;;;;4.50;4.07;;;;;;;;;;5027253;28;20052;-57
2022/08/14 00:40:43;;;;;;;5.13;4.35;;;;;;;;;;5028796;28;20053;-57
2022/08/14 00:43:10;;;;;;;5.18;4.22;;;;;;;;;;5029056;28;20099;-57
2022/08/14 00:45:36;;;;;;;7.78;4.60;;;;;;;;;;5028154;28;20438;-57
2022/08/14 00:48:01;;;;;;;8.27;4.55;;;;;;;;;;5027959;28;20034;-57
2022/08/14 00:50:29;;;;;;;9.90;4.50;;;;;;;;;;5028875;28;20112;-57
2022/08/14 00:52:58;;;;;;;8.43;4.45;;;;;;;;;;5025721;28;20522;-57
2022/08/14 00:55:27;;;;;;;6.20;4.47;;;;;;;;;;5028623;28;20045;-57
2022/08/14 01:00:38;;;;;;;4.90;4.40;;;;;;;;;;5029554;28;20032;-57
2022/08/14 01:03:06;;;;;;;5.18;4.65;;;;;;;;;;5027679;28;20033;-57
2022/08/14 01:05:33;;;;;;;5.30;4.32;;;;;;;;;;5027165;28;20509;-57
2022/08/14 01:07:59;;;;;;;8.93;4.65;;;;;;;;;;5027420;28;20029;-57
2022/08/14 01:10:49;;;;;;;5.97;4.25;;;;;;;;;;5029807;28;20395;-57
2022/08/14 01:13:15;;;;;;;6.22;4.40;;;;;;;;;;5024126;28;20037;-57
2022/08/14 01:15:51;;;;;;;5.72;4.47;;;;;;;;;;5028736;28;20029;-57
2022/08/14 01:21:03;;;;;;;5.65;4.20;;;;;;;;;;5027982;28;20101;-57
2022/08/14 01:23:30;;;;;;;4.72;4.25;;;;;;;;;;5024499;28;20479;-57
2022/08/14 01:25:57;;;;;;;5.93;4.05;;;;;;;;;;5028630;28;21804;-57
2022/08/14 01:28:25;;;;;;;5.10;4.60;;;;;;;;;;5028037;28;20034;-57
2022/08/14 01:30:54;;;;;;;4.90;4.40;;;;;;;;;;5026882;28;20078;-57
2022/08/14 01:33:21;;;;;;;5.63;4.38;;;;;;;;;;5027238;28;20026;-57
2022/08/14 01:35:47;;;;;;;4.95;4.30;;;;;;;;;;5029176;28;20437;-57
2022/08/14 01:38:14;;;;;;;4.85;4.35;;;;;;;;;;5028191;28;20026;-57
2022/08/14 01:40:40;;;;;;;4.75;4.32;;;;;;;;;;5026553;28;20032;-57
2022/08/14 01:43:16;;;;;;;6.00;4.18;;;;;;;;;;5025963;28;20410;-57
2022/08/14 01:45:50;;;;;;;7.65;4.50;;;;;;;;;;5024657;28;20049;-57
2022/08/14 01:48:16;;;;;;;4.90;4.40;;;;;;;;;;5031703;28;20033;-57
2022/08/14 01:50:42;;;;;;;5.07;4.28;;;;;;;;;;5031277;28;20067;-57
2022/08/14 01:53:08;;;;;;;5.00;4.50;;;;;;;;;;5030784;28;20025;-57
2022/08/14 01:55:34;;;;;;;5.30;3.97;;;;;;;;;;5032220;28;20259;-57
2022/08/14 01:58:00;;;;;;;5.25;4.20;;;;;;;;;;5031098;28;20025;-57
2022/08/14 02:00:27;;;;;;;5.05;4.30;;;;;;;;;;5031648;28;20029;-57
2022/08/14 02:02:54;;;;;;;5.07;4.20;;;;;;;;;;5030824;28;20049;-57
2022/08/14 02:05:22;;;;;;;4.50;4.10;;;;;;;;;;5031626;28;20052;-57
2022/08/14 02:07:48;;;;;;;6.55;4.18;;;;;;;;;;5032182;28;20491;-57
2022/08/14 02:10:13;;;;;;;5.60;3.90;;;;;;;;;;5031681;28;20044;-57
2022/08/14 02:12:39;;;;;;;4.72;4.10;;;;;;;;;;5029121;28;20055;-57
2022/08/14 02:15:08;;;;;;;4.90;4.40;;;;;;;;;;5031987;28;20032;-57
2022/08/14 02:17:34;;;;;;;8.40;4.65;;;;;;;;;;5029557;28;20033;-57
2022/08/14 02:19:59;;;;;;;4.18;3.72;;;;;;;;;;5030900;28;20029;-57
2022/08/14 02:22:25;;;;;;;4.68;4.05;;;;;;;;;;5029313;28;20025;-57
2022/08/14 02:24:51;;;;;;;5.88;3.97;;;;;;;;;;5031581;28;20087;-57
2022/08/14 02:27:17;;;;;;;7.47;4.78;;;;;;;;;;5031128;28;20426;-57
2022/08/14 02:29:43;;;;;;;5.57;4.50;;;;;;;;;;5033224;28;20342;-57
2022/08/14 02:32:10;;;;;;;4.45;4.05;;;;;;;;;;5028340;28;20038;-57
2022/08/14 02:34:37;;;;;;;5.18;4.38;;;;;;;;;;5031361;28;20033;-57
2022/08/14 02:37:09;;;;;;;5.63;3.92;;;;;;;;;;5028690;28;20095;-57
2022/08/14 02:39:41;;;;;;;4.65;3.92;;;;;;;;;;5028176;28;20040;-57
2022/08/14 02:42:16;;;;;;;4.43;3.90;;;;;;;;;;5033078;28;20539;-57
2022/08/14 02:44:42;;;;;;;5.65;4.10;;;;;;;;;;5031447;28;20029;-57
2022/08/14 02:47:08;;;;;;;6.63;4.57;;;;;;;;;;5028513;28;20034;-57
2022/08/14 02:49:34;;;;;;;4.97;4.47;;;;;;;;;;5030059;28;20022;-57
2022/08/14 02:51:59;;;;;;;6.43;4.43;;;;;;;;;;5025327;28;20029;-57
2022/08/14 02:54:26;;;;;;;4.72;4.20;;;;;;;;;;5031040;28;20031;-57
2022/08/14 02:56:53;;;;;;;4.90;4.40;;;;;;;;;;5030506;28;20095;-57
2022/08/14 02:59:20;;;;;;;6.80;4.13;;;;;;;;;;5036558;28;20117;-57
2022/08/14 03:01:46;;;;;;;5.35;4.40;;;;;;;;;;5029176;28;20021;-57
2022/08/14 03:04:12;;;;;;;5.90;4.35;;;;;;;;;;5030298;28;20445;-57
2022/08/14 03:06:39;;;;;;;5.28;4.47;;;;;;;;;;5031211;28;20025;-57
2022/08/14 03:09:05;;;;;;;4.70;4.15;;;;;;;;;;5030558;28;20480;-57
2022/08/14 03:11:30;;;;;;;5.25;3.95;;;;;;;;;;5027586;28;20034;-57
2022/08/14 03:13:56;;;;;;;4.50;4.05;;;;;;;;;;5029853;28;20523;-57
2022/08/14 03:16:24;;;;;;;4.82;4.32;;;;;;;;;;5028745;28;20029;-57
2022/08/14 03:18:59;;;;;;;6.63;4.50;;;;;;;;;;5028447;28;20119;-57
2022/08/14 03:21:24;;;;;;;5.00;4.45;;;;;;;;;;5028431;28;20025;-57
2022/08/14 03:24:11;;;;;;;5.50;4.43;;;;;;;;;;5030989;28;20039;-57
2022/08/14 03:26:38;;;;;;;7.95;4.65;;;;;;;;;;5029211;28;20034;-57
2022/08/14 03:29:04;;;;;;;4.90;4.18;;;;;;;;;;5028584;28;20067;-57
2022/08/14 03:31:30;;;;;;;6.20;4.05;;;;;;;;;;5027402;28;20041;-57
2022/08/14 03:33:57;;;;;;;8.60;4.55;;;;;;;;;;5029735;28;20395;-57
2022/08/14 03:36:22;;;;;;;4.90;4.40;;;;;;;;;;5030279;28;20517;-57
2022/08/14 03:38:51;;;;;;;7.38;5.03;;;;;;;;;;5029423;28;20029;-57
2022/08/14 03:41:27;;;;;;;6.37;4.90;;;;;;;;;;5028333;28;20133;-57
2022/08/14 03:43:58;;;;;;;5.25;4.38;;;;;;;;;;5028449;28;20031;-57
2022/08/14 03:46:26;;;;;;;6.13;4.43;;;;;;;;;;5028073;28;20048;-58
2022/08/14 03:48:53;;;;;;;5.82;4.55;;;;;;;;;;5027833;28;20442;-58
2022/08/14 03:51:19;;;;;;;6.72;4.35;;;;;;;;;;5030274;28;20747;-57
2022/08/14 03:53:46;;;;;;;4.95;4.35;;;;;;;;;;5028601;28;20537;-57
2022/08/14 03:56:15;;;;;;;6.82;4.93;;;;;;;;;;5029458;28;20060;-57
2022/08/14 03:58:47;;;;;;;5.82;4.63;;;;;;;;;;5026889;28;20060;-57
2022/08/14 04:01:23;;;;;;;6.18;5.20;;;;;;;;;;5028898;28;20384;-56
2022/08/14 04:03:50;;;;;;;5.53;4.75;;;;;;;;;;5029594;28;20463;-56
2022/08/14 04:06:19;;;;;;;5.85;5.10;;;;;;;;;;5028860;28;20057;-56
2022/08/14 04:08:46;;;;;;;5.00;4.47;;;;;;;;;;5028026;28;20069;-56
2022/08/14 04:11:12;;;;;;;6.40;4.60;;;;;;;;;;5027751;28;20041;-57
2022/08/14 04:13:41;;;;;;;6.80;5.15;;;;;;;;;;5028365;28;20076;-57
2022/08/14 04:16:10;;;;;;;5.05;4.35;;;;;;;;;;5022806;28;20465;-57
2022/08/14 04:18:40;;;;;;;7.85;5.28;;;;;;;;;;5023425;28;20030;-57
2022/08/14 04:21:06;;;;;;;7.30;5.07;;;;;;;;;;5028757;28;20120;-57
2022/08/14 04:23:32;;;;;;;6.57;4.78;;;;;;;;;;5030219;28;20108;-57
2022/08/14 04:25:58;;;;;;;6.38;4.82;;;;;;;;;;5029993;28;20026;-57
2022/08/14 04:28:25;;;;;;;6.57;5.20;;;;;;;;;;5027544;28;20137;-57
2022/08/14 04:30:51;;;;;;;7.05;5.28;;;;;;;;;;5029042;28;20041;-57
2022/08/14 04:33:16;;;;;;;6.25;5.32;;;;;;;;;;5026930;28;20061;-57
2022/08/14 04:35:41;;;;;;;6.88;5.22;;;;;;;;;;5028310;28;20483;-58
2022/08/14 04:43:38;;;;;;;5.57;4.78;;;;;;;;;;5028691;28;20024;-57
2022/08/14 04:46:11;;;;;;;5.07;4.57;;;;;;;;;;5023814;28;20030;-57
2022/08/14 04:48:38;;;;;;;6.55;4.95;;;;;;;;;;5025592;28;20025;-57
2022/08/14 04:51:05;;;;;;;6.75;5.00;;;;;;;;;;5028079;28;20033;-56
2022/08/14 04:53:32;;;;;;;9.32;6.22;;;;;;;;;;5027779;28;20566;-57
2022/08/14 04:55:57;;;;;;;8.02;5.97;;;;;;;;;;5027586;28;20080;-57
2022/08/14 04:58:28;;;;;;;7.60;5.70;;;;;;;;;;5028147;28;20092;-57
2022/08/14 05:00:56;;;;;;;7.03;4.90;;;;;;;;;;5029929;28;20061;-57
2022/08/14 05:03:32;;;;;;;5.85;5.13;;;;;;;;;;5026380;28;20068;-57
2022/08/14 05:06:00;;;;;;;6.45;5.10;;;;;;;;;;5021916;28;20467;-57
2022/08/14 05:08:27;;;;;;;7.15;5.75;;;;;;;;;;5022389;28;20036;-57
2022/08/14 05:10:55;;;;;;;5.95;5.25;;;;;;;;;;5023468;28;20029;-57
2022/08/14 05:13:23;;;;;;;6.53;5.63;;;;;;;;;;5028853;28;20079;-57
2022/08/14 05:15:51;;;;;;;7.65;5.50;;;;;;;;;;5023688;28;20035;-57
2022/08/14 05:18:19;;;;;;;6.78;5.50;;;;;;;;;;5022676;28;20029;-57
2022/08/14 05:20:48;;;;;;;7.47;5.45;;;;;;;;;;5023884;28;20021;-57
2022/08/14 05:23:17;;;;;;;6.70;5.85;;;;;;;;;;5023775;28;20022;-58
2022/08/14 05:25:43;;;;;;;7.28;5.38;;;;;;;;;;5024174;28;20547;-57
2022/08/14 05:28:21;;;;;;;7.07;5.40;;;;;;;;;;5028202;28;20049;-57
2022/08/14 05:30:47;;;;;;;7.32;5.53;;;;;;;;;;5023857;28;20167;-57
2022/08/14 05:33:15;;;;;;;8.43;5.63;;;;;;;;;;5029454;28;20209;-57
2022/08/14 05:35:41;;;;;;;9.07;5.78;;;;;;;;;;5025192;28;20107;-57
2022/08/14 05:38:14;;;;;;;13.60;6.80;;;;;;;;;;5039697;28;20116;-57
2022/08/14 05:40:40;;;;;;;11.50;7.60;;;;;;;;;;5032288;28;20033;-57
2022/08/14 05:43:06;;;;;;;8.68;6.07;;;;;;;;;;5031765;28;20376;-57
2022/08/14 05:45:34;;;;;;;6.35;5.28;;;;;;;;;;5030873;28;20021;-57
2022/08/14 05:48:00;;;;;;;6.07;5.47;;;;;;;;;;5033975;28;20028;-57
2022/08/14 05:50:26;;;;;;;6.22;5.63;;;;;;;;;;5030882;28;20079;-57
2022/08/14 05:52:53;;;;;;;10.68;5.93;;;;;;;;;;5026730;28;20438;-57
2022/08/14 05:55:20;;;;;;;7.38;5.55;;;;;;;;;;5033146;28;20518;-57
2022/08/14 05:57:49;;;;;;;7.80;6.03;;;;;;;;;;5028986;28;20072;-57
2022/08/14 06:00:16;;;;;;;7.43;6.45;;;;;;;;;;5028514;28;20021;-57
2022/08/14 06:02:42;;;;;;;7.45;5.93;;;;;;;;;;5027054;28;20044;-57
2022/08/14 06:05:08;;;;;;;7.22;5.85;;;;;;;;;;5026519;28;20026;-57
2022/08/14 06:07:37;;;;;;;7.75;6.00;;;;;;;;;;5027698;28;20076;-57
2022/08/14 06:10:07;;;;;;;8.85;7.10;;;;;;;;;;5028323;28;20025;-57
2022/08/14 06:12:33;;;;;;;10.57;6.22;;;;;;;;;;5025103;28;20025;-57
2022/08/14 06:14:59;;;;;;;8.27;6.13;;;;;;;;;;5027195;28;20030;-57
2022/08/14 06:17:25;;;;;;;8.40;6.45;;;;;;;;;;5022550;28;20036;-58
2022/08/14 06:19:50;;;;;;;9.38;6.70;;;;;;;;;;5023107;28;20481;-58
2022/08/14 06:22:16;;;;;;;7.43;6.15;;;;;;;;;;5027873;28;20041;-58
2022/08/14 06:24:41;;;;;;;8.10;6.15;;;;;;;;;;5024721;28;20303;-58
2022/08/14 06:27:06;;;;;;;8.77;6.32;;;;;;;;;;5029463;28;20040;-58
2022/08/14 06:29:33;;;;;;;7.55;6.53;;;;;;;;;;5027907;28;20115;-58
2022/08/14 06:31:58;;;;;;;9.35;7.13;;;;;;;;;;5023925;28;20327;-58
2022/08/14 06:34:23;;;;;;;7.65;6.00;;;;;;;;;;5028224;28;20029;-58
2022/08/14 06:36:49;;;;;;;7.50;6.05;;;;;;;;;;5020579;28;20069;-58
2022/08/14 06:39:14;;;;;;;10.43;6.60;;;;;;;;;;5027990;28;20025;-58
2022/08/14 06:41:40;;;;;;;8.02;6.60;;;;;;;;;;5030353;28;20025;-58
2022/08/14 06:44:07;;;;;;;8.52;6.35;;;;;;;;;;5030809;28;20036;-58
2022/08/14 06:46:32;;;;;;;7.75;5.45;;;;;;;;;;5029950;28;20025;-58
2022/08/14 06:48:58;;;;;;;8.65;7.18;;;;;;;;;;5033055;28;20553;-58
2022/08/14 06:51:23;;;;;;;9.27;6.30;;;;;;;;;;5029207;28;20096;-58
2022/08/14 06:53:48;;;;;;;10.43;6.05;;;;;;;;;;5028768;28;20021;-58
2022/08/14 06:56:14;;;;;;;7.43;6.05;;;;;;;;;;5027123;28;20548;-58
2022/08/14 06:58:39;;;;;;;8.35;6.10;;;;;;;;;;5033632;28;20018;-58
2022/08/14 07:06:33;;;;;;;7.93;6.30;;;;;;;;;;5027686;28;20120;-58
2022/08/14 07:08:58;;;;;;;6.97;6.28;;;;;;;;;;5028992;28;20108;-58
2022/08/14 07:11:24;;;;;;;7.20;6.22;;;;;;;;;;5025968;28;20044;-55
2022/08/14 07:13:49;;;;;;;5.78;5.20;;;;;;;;;;5024079;28;20032;-54
2022/08/14 07:16:15;;;;;;;7.53;5.43;;;;;;;;;;5025796;28;20403;-55
2022/08/14 07:18:40;;;;;;;10.15;5.22;;;;;;;;;;5030115;28;20487;-55
2022/08/14 07:21:07;;;;;;;7.20;5.50;;;;;;;;;;5024715;28;20025;-55
2022/08/14 07:23:33;;;;;;;5.82;5.22;;;;;;;;;;5031259;28;20022;-56
2022/08/14 07:26:01;;;;;;;8.77;6.10;;;;;;;;;;5019166;28;20345;-54
2022/08/14 07:28:32;;;;;;;8.13;6.07;;;;;;;;;;5029841;28;20046;-54
2022/08/14 07:30:58;;;;;;;6.40;5.30;;;;;;;;;;5027051;28;20458;-55
2022/08/14 07:33:30;;;;;;;6.25;5.65;;;;;;;;;;5025184;28;20048;-55
2022/08/14 07:35:58;;;;;;;6.85;5.65;;;;;;;;;;5031223;28;20025;-55
2022/08/14 07:38:28;;;;;;;6.87;5.60;;;;;;;;;;5031141;28;20034;-55
2022/08/14 07:40:54;;;;;;;8.60;5.43;;;;;;;;;;5023311;28;20041;-53
2022/08/14 07:43:21;;;;;;;10.18;6.05;;;;;;;;;;5024554;28;20562;-56
2022/08/14 07:45:46;;;;;;;6.82;5.18;;;;;;;;;;5026048;28;20556;-54
2022/08/14 07:48:12;;;;;;;7.97;5.38;;;;;;;;;;5026542;28;20036;-54
2022/08/14 07:50:38;;;;;;;11.57;5.63;;;;;;;;;;5030906;28;20407;-54
2022/08/14 07:53:05;;;;;;;8.80;5.50;;;;;;;;;;5027997;28;20061;-55
2022/08/14 07:55:31;;;;;;;9.65;5.28;;;;;;;;;;5027770;28;20084;-54
2022/08/14 07:57:56;;;;;;;7.32;5.15;;;;;;;;;;5026770;28;20017;-55
2022/08/14 08:00:24;;;;;;;7.03;5.78;;;;;;;;;;5025914;28;20025;-55
2022/08/14 08:02:52;;;;;;;6.93;5.30;;;;;;;;;;5023924;28;20164;-55
2022/08/14 08:05:18;;;;;;;8.20;5.47;;;;;;;;;;5025419;28;20033;-56
2022/08/14 08:07:45;;;;;;;7.72;5.20;;;;;;;;;;5023935;28;20411;-59
2022/08/14 08:10:30;;;;;;;6.75;5.28;;;;;;;;;;5022097;28;20087;-53
2022/08/14 08:12:57;;;;;;;11.90;5.70;;;;;;;;;;5021931;28;20092;-54
2022/08/14 08:15:25;;;;;;;8.02;5.53;;;;;;;;;;5021225;28;20108;-54
2022/08/14 08:17:50;;;;;;;16.73;6.43;;;;;;;;;;5024755;28;20033;-54
2022/08/14 08:20:27;;;;;;;10.45;6.20;;;;;;;;;;5029924;28;20102;-52
2022/08/14 08:22:55;;;;;;;11.10;5.85;;;;;;;;;;5024220;28;20021;-54
2022/08/14 08:25:22;;;;;;;6.40;5.30;;;;;;;;;;5025059;28;20032;-54
2022/08/14 08:28:09;;;;;;;12.00;5.38;;;;;;;;;;5027271;28;20333;-52
2022/08/14 08:30:39;;;;;;;7.82;5.15;;;;;;;;;;5020076;28;20033;-55
2022/08/14 08:33:06;;;;;;;9.95;5.28;;;;;;;;;;5021882;28;20034;-54
2022/08/14 08:35:34;;;;;;;6.32;5.30;;;;;;;;;;5020621;28;20037;-56
2022/08/14 08:38:11;;;;;;;5.63;4.72;;;;;;;;;;5021889;28;20025;-55
2022/08/14 08:40:42;;;;;;;7.10;5.15;;;;;;;;;;5027462;28;20051;-55
2022/08/14 08:43:16;;;;;;;6.60;4.72;;;;;;;;;;5025232;28;20491;-56
2022/08/14 08:45:42;;;;;;;5.57;4.35;;;;;;;;;;5020858;28;20403;-55
2022/08/14 08:48:07;;;;;;;7.10;4.40;;;;;;;;;;5024774;28;20021;-55
2022/08/14 08:50:36;;;;;;;5.10;4.60;;;;;;;;;;5024131;28;20029;-53
2022/08/14 08:53:05;;;;;;;4.70;4.20;;;;;;;;;;5022240;28;20514;-54
2022/08/14 08:55:37;;;;;;;8.55;4.32;;;;;;;;;;5026059;28;20033;-56
2022/08/14 08:58:05;;;;;;;4.60;4.20;;;;;;;;;;5020873;28;20048;-58
2022/08/14 09:00:33;;;;;;;8.38;4.55;;;;;;;;;;5027376;28;20026;-58
2022/08/14 09:03:18;;;;;;;5.75;4.97;;;;;;;;;;5022143;28;20037;-57
2022/08/14 09:05:52;;;;;;;5.53;4.30;;;;;;;;;;5023120;28;20502;-57
2022/08/14 09:08:24;;;;;;;5.03;4.38;;;;;;;;;;5019049;28;20036;-56
2022/08/14 09:10:51;;;;;;;4.22;3.72;;;;;;;;;;5020389;28;20041;-59
2022/08/14 09:13:18;;;;;;;7.00;4.28;;;;;;;;;;5020041;28;20030;-58
2022/08/14 09:15:45;;;;;;;8.55;4.70;;;;;;;;;;5023120;28;20029;-58
2022/08/14 09:18:12;;;;;;;5.40;4.60;;;;;;;;;;5017047;28;20021;-58
2022/08/14 09:20:44;;;;;;;12.43;4.45;;;;;;;;;;5017788;28;20022;-58
2022/08/14 09:23:10;;;;;;;8.48;4.57;;;;;;;;;;5023808;28;20057;-58
2022/08/14 09:25:37;;;;;;;7.90;4.35;;;;;;;;;;5022565;28;20034;-58
2022/08/14 09:28:04;;;;;;;6.03;4.68;;;;;;;;;;5019189;28;20029;-57
2022/08/14 09:30:32;;;;;;;5.85;5.00;;;;;;;;;;5015775;28;20545;-58
2022/08/14 09:33:01;;;;;;;4.90;4.43;;;;;;;;;;5020581;28;20029;-57
2022/08/14 09:35:41;;;;;;;4.57;4.18;;;;;;;;;;5027730;28;20025;-55
2022/08/14 09:38:15;;;;;;;6.45;5.15;;;;;;;;;;5023443;28;20048;-57
2022/08/14 09:40:53;;;;;;;7.10;4.53;;;;;;;;;;5030077;28;20025;-57
2022/08/14 09:43:47;;;;;;;5.15;4.20;;;;;;;;;;5025518;28;20101;-58
2022/08/14 09:46:15;;;;;;;6.95;4.00;;;;;;;;;;5023639;28;20039;-58
2022/08/14 09:48:40;;;;;;;7.40;4.47;;;;;;;;;;5024866;28;20029;-56
2022/08/14 09:51:06;;;;;;;4.30;3.85;;;;;;;;;;5019881;28;20036;-58
2022/08/14 09:53:31;;;;;;;5.88;4.35;;;;;;;;;;5025028;28;20037;-59
2022/08/14 09:55:59;;;;;;;7.75;4.50;;;;;;;;;;5025486;28;20811;-58
2022/08/14 09:58:43;;;;;;;6.00;4.32;;;;;;;;;;5025845;28;20029;-58
2022/08/14 10:01:11;;;;;;;4.47;4.00;;;;;;;;;;5023876;28;20026;-60
2022/08/14 10:03:45;;;;;;;5.03;4.53;;;;;;;;;;5027363;28;20021;-57
2022/08/14 10:06:16;;;;;;;4.40;4.00;;;;;;;;;;5027469;28;20030;-56
2022/08/14 10:08:44;;;;;;;4.47;4.07;;;;;;;;;;5030295;28;20036;-56
2022/08/14 10:11:20;;;;;;;6.72;4.15;;;;;;;;;;5022331;28;20062;-57
2022/08/14 10:13:51;;;;;;;5.78;3.88;;;;;;;;;;5031077;28;20037;-59
2022/08/14 10:16:17;;;;;;;10.25;3.88;;;;;;;;;;5031337;28;20041;-57
2022/08/14 10:18:42;;;;;;;5.55;3.90;;;;;;;;;;5024896;28;20029;-57
2022/08/14 10:21:15;;;;;;;4.90;3.40;;;;;;;;;;5023248;28;20044;-58
2022/08/14 10:23:43;;;;;;;8.98;3.97;;;;;;;;;;5026583;28;20501;-57
2022/08/14 10:26:09;;;;;;;5.65;3.45;;;;;;;;;;5034554;28;20040;-58
2022/08/14 10:28:41;;;;;;;3.92;3.63;;;;;;;;;;5028433;28;20037;-58
2022/08/14 10:31:15;;;;;;;4.55;4.15;;;;;;;;;;5028075;28;20025;-58
2022/08/14 10:33:41;;;;;;;4.47;3.78;;;;;;;;;;5026333;28;20104;-58
2022/08/14 10:36:06;;;;;;;5.00;3.55;;;;;;;;;;5029464;28;20447;-57
2022/08/14 10:38:34;;;;;;;6.28;3.63;;;;;;;;;;5029494;28;20475;-58
2022/08/14 10:41:14;;;;;;;4.43;4.03;;;;;;;;;;5030827;28;20411;-56
2022/08/14 10:43:42;;;;;;;5.00;3.50;;;;;;;;;;5031984;28;20021;-55
2022/08/14 10:46:13;;;;;;;5.60;3.70;;;;;;;;;;5029318;28;20033;-55
2022/08/14 10:48:39;;;;;;;5.68;3.90;;;;;;;;;;5032649;28;20033;-55
2022/08/14 10:51:05;;;;;;;3.90;3.20;;;;;;;;;;5030720;28;20032;-55
2022/08/14 10:53:33;;;;;;;4.10;3.70;;;;;;;;;;5029171;28;20036;-55
2022/08/14 10:56:02;;;;;;;3.72;3.30;;;;;;;;;;5027305;28;20030;-54
2022/08/14 10:58:30;;;;;;;6.78;4.97;;;;;;;;;;5031286;28;20037;-56
2022/08/14 11:00:59;;;;;;;3.97;3.60;;;;;;;;;;5026682;28;20076;-54
2022/08/14 11:03:35;;;;;;;4.53;4.13;;;;;;;;;;5028289;28;20029;-54
2022/08/14 11:06:14;;;;;;;3.63;3.33;;;;;;;;;;5028111;28;20400;-55
2022/08/14 11:08:39;;;;;;;5.28;4.28;;;;;;;;;;5022034;28;20120;-55
2022/08/14 11:11:05;;;;;;;15.40;10.55;;;;;;;;;;5026735;28;20589;-54
2022/08/14 11:13:31;;;;;;;3.75;3.30;;;;;;;;;;5027383;28;20029;-55
2022/08/14 11:16:01;;;;;;;3.92;3.15;;;;;;;;;;5026135;28;20025;-55
2022/08/14 11:18:29;;;;;;;3.45;3.15;;;;;;;;;;5028874;28;20029;-55
2022/08/14 11:20:58;;;;;;;3.88;3.40;;;;;;;;;;5029015;28;20032;-55
2022/08/14 11:23:35;;;;;;;5.28;3.55;;;;;;;;;;5023318;28;20037;-55
2022/08/14 11:26:01;;;;;;;4.60;3.58;;;;;;;;;;5024662;28;20021;-55
2022/08/14 11:28:32;;;;;;;5.47;2.97;;;;;;;;;;5027773;28;20726;-55
2022/08/14 11:30:58;;;;;;;3.55;3.20;;;;;;;;;;5018448;28;20083;-55
2022/08/14 11:33:28;;;;;;;2.92;2.72;;;;;;;;;;5027238;28;20045;-56
2022/08/14 11:35:53;;;;;;;2.72;2.53;;;;;;;;;;5030425;28;20033;-54
2022/08/14 11:38:20;;;;;;;4.05;2.50;;;;;;;;;;5029773;28;20491;-54
2022/08/14 11:40:46;;;;;;;3.03;2.72;;;;;;;;;;5028889;28;20368;-55
2022/08/14 11:43:11;;;;;;;3.47;3.05;;;;;;;;;;5027202;28;20491;-55
2022/08/14 11:45:39;;;;;;;3.60;3.00;;;;;;;;;;5028698;28;20037;-54
2022/08/14 11:48:18;;;;;;;6.63;3.00;;;;;;;;;;5028770;28;20029;-55
2022/08/14 11:50:45;;;;;;;3.33;2.67;;;;;;;;;;5023725;28;20026;-55
2022/08/14 11:53:29;;;;;;;3.58;2.83;;;;;;;;;;5024443;28;20500;-54
2022/08/14 11:56:03;;;;;;;3.95;3.00;;;;;;;;;;5028581;28;20033;-55
2022/08/14 11:58:31;;;;;;;2.83;2.63;;;;;;;;;;5026932;28;20487;-54
2022/08/14 12:01:00;;;;;;;3.38;2.83;;;;;;;;;;5022536;28;20044;-57
2022/08/14 12:03:34;;;;;;;3.10;2.83;;;;;;;;;;5023367;28;20109;-56
2022/08/14 12:06:08;;;;;;;5.80;2.67;;;;;;;;;;5024043;28;20021;-55
2022/08/14 12:08:35;;;;;;;2.78;2.38;;;;;;;;;;5027266;28;20048;-55
2022/08/14 12:11:01;;;;;;;2.90;2.70;;;;;;;;;;5024635;28;20025;-55
2022/08/14 12:13:32;;;;;;;3.78;3.05;;;;;;;;;;5026961;28;20116;-58
2022/08/14 12:16:09;;;;;;;3.03;2.72;;;;;;;;;;5025821;28;20083;-58
2022/08/14 12:18:36;;;;;;;4.83;2.60;;;;;;;;;;5016438;28;20025;-58
2022/08/14 12:21:23;;;;;;;2.95;2.65;;;;;;;;;;5016851;28;20029;-58
2022/08/14 12:24:09;;;;;;;2.95;2.70;;;;;;;;;;5019459;28;20039;-58
2022/08/14 12:26:36;;;;;;;3.25;2.40;;;;;;;;;;5021789;28;20099;-58
2022/08/14 12:29:13;;;;;;;3.47;2.53;;;;;;;;;;5020806;28;20479;-58
2022/08/14 12:31:40;;;;;;;6.25;3.17;;;;;;;;;;5025635;28;20041;-58
2022/08/14 12:34:08;;;;;;;3.58;2.63;;;;;;;;;;5025757;28;20503;-58
2022/08/14 12:36:34;;;;;;;2.58;2.38;;;;;;;;;;5028125;28;20029;-58
2022/08/14 12:39:04;;;;;;;4.68;2.67;;;;;;;;;;5027309;28;20060;-58
2022/08/14 12:41:33;;;;;;;3.17;2.60;;;;;;;;;;5027572;28;20041;-58
2022/08/14 12:44:00;;;;;;;2.75;2.55;;;;;;;;;;5036107;28;20024;-58
2022/08/14 12:46:33;;;;;;;3.00;2.73;;;;;;;;;;5027333;28;20100;-59
2022/08/14 12:49:05;;;;;;;2.80;2.60;;;;;;;;;;5026151;28;20650;-58
2022/08/14 12:51:31;;;;;;;2.65;2.45;;;;;;;;;;5025903;28;20650;-58
2022/08/14 12:53:58;;;;;;;2.55;2.35;;;;;;;;;;5024877;28;20491;-58
2022/08/14 12:56:26;;;;;;;3.33;2.63;;;;;;;;;;5027934;28;20044;-58
2022/08/14 12:58:57;;;;;;;2.92;2.67;;;;;;;;;;5027658;28;20052;-58
2022/08/14 13:01:27;;;;;;;2.50;2.30;;;;;;;;;;5023690;28;20037;-58
2022/08/14 13:04:13;;;;;;;2.58;2.38;;;;;;;;;;5026868;28;20021;-58
2022/08/14 13:06:43;;;;;;;4.50;2.30;;;;;;;;;;5020660;28;20100;-58
2022/08/14 13:09:10;;;;;;;2.58;2.33;;;;;;;;;;5026153;28;20029;-58
2022/08/14 13:11:48;;;;;;;3.33;2.30;;;;;;;;;;5016947;28;20030;-58
2022/08/14 13:14:16;;;;;;;;;;;;;;;;;;5023039;28;20026;-60
2022/08/14 13:16:42;;;;;;;;;;;;;;;;;;5027732;28;19917;-60
2022/08/14 13:19:14;;;;;;;2.58;2.30;;;;;;;;;;5028356;28;20442;-59
2022/08/14 13:21:44;;;;;;;3.00;2.33;;;;;;;;;;5022801;28;20029;-59
2022/08/14 13:24:12;;;;;;;2.80;2.55;;;;;;;;;;5017774;28;20022;-59
2022/08/14 13:26:46;;;;;;;2.92;2.60;;;;;;;;;;5022133;28;20120;-58
2022/08/14 13:29:14;;;;;;;2.50;2.30;;;;;;;;;;5026494;28;20106;-59
2022/08/14 13:31:44;;;;;;;2.50;2.30;;;;;;;;;;5023260;28;20037;-58
2022/08/14 13:34:11;;;;;;;3.55;2.25;;;;;;;;;;5024170;28;20519;-58
2022/08/14 13:36:38;;;;;;;2.60;2.33;;;;;;;;;;5028669;28;20490;-58
2022/08/14 13:39:04;;;;;;;3.42;2.40;;;;;;;;;;5026767;28;20116;-58
2022/08/14 13:41:32;;;;;;;4.10;2.13;;;;;;;;;;5027601;28;20112;-58
2022/08/14 13:43:58;;;;;;;2.80;2.60;;;;;;;;;;5031853;28;20017;-59
2022/08/14 13:46:24;;;;;;;2.95;2.20;;;;;;;;;;5030284;28;20029;-58
2022/08/14 13:48:50;;;;;;;3.10;2.35;;;;;;;;;;5030133;28;20041;-58
2022/08/14 13:51:16;;;;;;;2.88;2.65;;;;;;;;;;5028102;28;20033;-58
2022/08/14 13:53:47;;;;;;;2.40;2.20;;;;;;;;;;5029600;28;20075;-58
2022/08/14 13:56:14;;;;;;;2.67;2.47;;;;;;;;;;5029324;28;20024;-58
2022/08/14 13:58:43;;;;;;;2.80;2.20;;;;;;;;;;5028645;28;20037;-58
2022/08/14 14:01:16;;;;;;;2.70;2.50;;;;;;;;;;5023172;28;20026;-58
2022/08/14 14:03:51;;;;;;;3.08;2.80;;;;;;;;;;5022302;28;20555;-58
2022/08/14 14:06:17;;;;;;;3.28;2.97;;;;;;;;;;5025434;28;20040;-58
2022/08/14 14:08:48;;;;;;;3.25;2.70;;;;;;;;;;5027557;28;20049;-59
2022/08/14 14:11:18;;;;;;;3.03;2.70;;;;;;;;;;5026047;28;20112;-58
2022/08/14 14:13:44;;;;;;;3.30;2.90;;;;;;;;;;5027258;28;20472;-58
2022/08/14 14:16:10;;;;;;;5.53;2.90;;;;;;;;;;5022622;28;20041;-58
2022/08/14 14:18:37;;;;;;;3.58;3.25;;;;;;;;;;5027686;28;20028;-58
2022/08/14 14:21:05;;;;;;;2.58;2.38;;;;;;;;;;5022977;28;20072;-58
2022/08/14 14:23:33;;;;;;;5.20;2.60;;;;;;;;;;5028993;28;20025;-58
2022/08/14 14:25:59;;;;;;;3.33;3.03;;;;;;;;;;5028206;28;20038;-58
2022/08/14 14:28:30;;;;;;;7.47;2.97;;;;;;;;;;5017767;28;20488;-58
2022/08/14 14:30:56;;;;;;;3.35;3.05;;;;;;;;;;5029042;28;20029;-59
2022/08/14 14:33:23;;;;;;;2.75;2.55;;;;;;;;;;5033132;28;20097;-58
2022/08/14 14:35:49;;;;;;;3.13;2.93;;;;;;;;;;5031531;28;20127;-59
2022/08/14 14:38:16;;;;;;;3.05;2.80;;;;;;;;;;5030231;28;20091;-58
2022/08/14 14:40:45;;;;;;;3.00;2.70;;;;;;;;;;5029766;28;20101;-58
2022/08/14 14:43:12;;;;;;;4.60;2.90;;;;;;;;;;5031203;28;20175;-58
2022/08/14 14:45:38;;;;;;;3.33;3.03;;;;;;;;;;5026773;28;20025;-58
2022/08/14 14:48:06;;;;;;;3.35;2.85;;;;;;;;;;5027347;28;20093;-58
2022/08/14 14:50:32;;;;;;;;;;;;;;;;;;5028606;28;20637;-58
2022/08/14 14:52:57;;;;;;;3.17;2.90;;;;;;;;;;5030472;28;20007;-58
2022/08/14 14:55:24;;;;;;;3.33;3.03;;;;;;;;;;5028351;28;20029;-57
2022/08/14 14:57:49;;;;;;;3.42;3.10;;;;;;;;;;5030055;28;20033;-57
2022/08/14 15:00:17;;;;;;;3.30;3.00;;;;;;;;;;5025508;28;20036;-57
2022/08/14 15:02:46;;;;;;;4.05;3.38;;;;;;;;;;5024127;28;20083;-58
2022/08/14 15:05:14;;;;;;;3.50;2.80;;;;;;;;;;5025946;28;20041;-58
2022/08/14 15:07:41;;;;;;;4.70;3.50;;;;;;;;;;5026146;28;20163;-57